Pagrindinis puslapis
METAR-TAF:

METAR-TAF

Oro uostai :

Bario oro uostas

Baris, Italija

platuma: 41-08N, ilguma: 016-47E, Aukštis: 34 m

Dabartinis oras

Ataskaita buvo paskelbta 37 minutes, ne 02:50 UTC
Vėjas 6 kt iš Pietvakarių
Temperatūra 4°C
Drėgmė 87%
Slėgis 1023 hPa
Matomumas 10 km arba daugiau
nėra debesų žemiau 1500 m ir nėra kamuolinių lietaus debesų

METAR: LIBD 180250Z 23006KT CAVOK 04/02 Q1023

Laikas: 04:27 (03:27 UTC)

Prognozė

Ataskaita buvo paskelbta 4 valandos ir 27 minutes, ne 23:00 UTC
Prognozė galioja nuo 18 metu 00 UTC su 18 metu 24 UTC
Vėjas 5 kt nuo kintamojo kryptimis
Matomumas 10 km arba daugiau
nėra debesų žemiau 1500 m ir nėra kamuolinių lietaus debesų
Laikinai
nuo 18 metu 15 UTC su 18 metu 20 UTC
lietus

TAF: LIBD 172300Z 1800/1824 VRB05KT CAVOK TEMPO 1815/1820 RA

Orai ataskaitas ir orų prognozės (METAR, TAF).

turimą stotys yra geltonos ir raudonos taškus žemėlapyje.

Perkelti pele per norėdami pamatyti stoties vardą.

Tada spustelėkite, norėdami matyti oro stebėjimo ir prognozės.

Norėdami pakeisti žemėlapį: spustelėkite ant žalios mygtukų su juodo kryžiaus žemyn,; žalią mygtuką su brūkšneliu, jei norite nutolinti; arba žalių rodyklių gretimoms žemėlapius.


METAR-TAF: